Time;durP1;ratioP1;P1;durP2;ratioP2;P2;SDS_P1;SDS_P2;PMS_P1;PMS_P2;Temp;Humidity;BMP_temperature;BMP_pressure;BME280_temperature;BME280_humidity;BME280_pressure;Samples;Min_cycle;Max_cycle;Signal;HPM_P1;HPM_P2
2021/11/13 00:00:45;;;;;;;109.07;31.50;;;2.40;99.90;;;;;;5052124;28;20261;-71
2021/11/13 00:03:13;;;;;;;111.45;32.17;;;2.50;99.90;;;;;;5052071;28;20259;-71
2021/11/13 00:05:42;;;;;;;114.10;32.83;;;2.40;99.90;;;;;;5051463;28;20317;-71
2021/11/13 00:08:09;;;;;;;110.82;32.00;;;2.40;99.90;;;;;;5052112;28;20237;-71
2021/11/13 00:10:37;;;;;;;105.22;31.65;;;2.20;99.90;;;;;;5051968;28;20675;-71
2021/11/13 00:13:06;;;;;;;110.88;31.77;;;2.30;99.90;;;;;;5051844;28;20241;-71
2021/11/13 00:15:33;;;;;;;104.72;29.83;;;2.50;99.90;;;;;;5051512;28;20575;-71
2021/11/13 00:18:01;;;;;;;107.95;31.13;;;2.60;99.90;;;;;;5051870;28;20292;-71
2021/11/13 00:20:29;;;;;;;111.75;33.65;;;2.60;99.90;;;;;;5051613;28;20225;-71
2021/11/13 00:22:58;;;;;;;102.78;29.77;;;2.70;99.90;;;;;;5051615;28;20210;-71
2021/11/13 00:25:25;;;;;;;107.88;32.88;;;2.60;99.90;;;;;;5051411;28;20706;-71
2021/11/13 00:27:54;;;;;;;109.82;30.80;;;2.60;99.90;;;;;;5051648;28;20296;-71
2021/11/13 00:30:20;;;;;;;113.22;32.88;;;2.60;99.90;;;;;;5051666;28;20580;-71
2021/11/13 00:32:47;;;;;;;113.53;32.30;;;2.70;99.90;;;;;;5051461;28;20303;-71
2021/11/13 00:35:14;;;;;;;115.05;34.53;;;2.70;99.90;;;;;;5051658;28;20298;-71
2021/11/13 00:37:42;;;;;;;110.18;31.77;;;2.50;99.90;;;;;;5051117;28;20745;-71
2021/11/13 00:40:10;;;;;;;110.57;30.67;;;2.60;99.90;;;;;;5051348;28;20201;-71
2021/11/13 00:42:37;;;;;;;107.72;32.88;;;2.60;99.90;;;;;;5051502;28;20758;-71
2021/11/13 00:45:07;;;;;;;113.78;32.35;;;2.60;99.90;;;;;;5051393;28;20671;-71
2021/11/13 00:47:34;;;;;;;103.05;30.60;;;2.50;99.90;;;;;;5051209;28;20213;-71
2021/11/13 00:50:01;;;;;;;108.93;31.33;;;2.50;99.90;;;;;;5051310;28;20765;-71
2021/11/13 00:52:28;;;;;;;118.35;32.30;;;2.50;99.90;;;;;;5051484;28;20219;-71
2021/11/13 00:54:55;;;;;;;113.53;32.38;;;2.50;99.90;;;;;;5051372;28;20209;-71
2021/11/13 00:57:22;;;;;;;114.20;29.70;;;2.40;99.90;;;;;;5051136;28;20213;-71
2021/11/13 00:59:49;;;;;;;100.60;32.83;;;2.40;99.90;;;;;;5051237;28;20205;-71
2021/11/13 01:02:18;;;;;;;106.45;31.25;;;2.50;99.90;;;;;;5051460;28;20273;-71
2021/11/13 01:04:45;;;;;;;114.68;30.77;;;2.50;99.90;;;;;;5051343;28;20661;-71
2021/11/13 01:07:12;;;;;;;103.43;28.95;;;2.40;99.90;;;;;;5050959;28;20240;-71
2021/11/13 01:09:39;;;;;;;105.82;30.40;;;2.20;99.90;;;;;;5051266;28;20241;-71
2021/11/13 01:12:06;;;;;;;108.50;32.50;;;2.20;99.90;;;;;;5051198;28;20232;-71
2021/11/13 01:14:39;;;;;;;110.40;33.47;;;2.30;99.90;;;;;;5051129;28;20288;-71
2021/11/13 01:17:07;;;;;;;108.45;34.60;;;2.30;99.90;;;;;;5051132;28;20206;-71
2021/11/13 01:19:35;;;;;;;113.68;32.63;;;2.30;99.90;;;;;;5051116;28;20218;-71
2021/11/13 01:22:02;;;;;;;112.30;34.13;;;2.40;99.90;;;;;;5051090;28;20665;-71
2021/11/13 01:24:29;;;;;;;102.07;31.25;;;2.50;99.90;;;;;;5050929;28;20236;-71
2021/11/13 01:26:56;;;;;;;113.55;31.23;;;2.50;99.90;;;;;;5050691;28;20281;-71
2021/11/13 01:29:23;;;;;;;109.25;32.83;;;2.50;99.90;;;;;;5051273;28;20241;-71
2021/11/13 01:31:50;;;;;;;109.72;33.92;;;2.50;99.90;;;;;;5050928;28;20261;-71
2021/11/13 01:34:16;;;;;;;111.18;32.42;;;2.40;99.90;;;;;;5050980;28;20237;-72
2021/11/13 01:36:45;;;;;;;102.57;32.13;;;2.50;99.90;;;;;;5050769;28;20237;-71
2021/11/13 01:39:12;;;;;;;114.40;32.17;;;2.50;99.90;;;;;;5050888;28;20208;-72
2021/11/13 01:41:39;;;;;;;114.18;31.67;;;2.50;99.90;;;;;;5050696;28;20241;-71
2021/11/13 01:44:06;;;;;;;104.97;29.45;;;2.40;99.90;;;;;;5050780;28;20206;-71
2021/11/13 01:46:33;;;;;;;154.35;30.35;;;2.40;99.90;;;;;;5050648;28;20208;-71
2021/11/13 01:49:00;;;;;;;128.82;31.20;;;2.40;99.90;;;;;;5051010;28;20233;-71
2021/11/13 01:51:30;;;;;;;107.80;29.80;;;2.40;99.90;;;;;;5054532;28;20240;-71
2021/11/13 01:54:04;;;;;;;122.97;31.60;;;2.40;99.90;;;;;;5054411;28;20240;-72
2021/11/13 01:56:31;;;;;;;105.95;30.85;;;2.40;99.90;;;;;;5054266;28;20241;-72
2021/11/13 01:59:03;;;;;;;124.25;35.13;;;2.30;99.90;;;;;;5054553;28;20289;-72
2021/11/13 02:01:30;;;;;;;127.38;33.00;;;2.50;99.90;;;;;;5054474;28;20672;-71
2021/11/13 02:03:58;;;;;;;109.80;32.70;;;2.50;99.90;;;;;;5054346;28;20213;-72
2021/11/13 02:06:25;;;;;;;118.30;33.80;;;2.60;99.90;;;;;;5053649;28;20225;-72
2021/11/13 02:08:53;;;;;;;126.07;35.60;;;2.50;99.90;;;;;;5054219;28;20283;-72
2021/11/13 02:11:23;;;;;;;114.43;32.17;;;2.50;99.90;;;;;;5054208;28;20656;-72
2021/11/13 02:13:51;;;;;;;111.40;32.53;;;2.50;99.90;;;;;;5054409;28;20209;-71
2021/11/13 02:16:18;;;;;;;123.95;33.25;;;2.50;99.90;;;;;;5053583;28;20208;-72
2021/11/13 02:18:45;;;;;;;110.20;31.50;;;2.60;99.90;;;;;;5054132;28;20212;-71
2021/11/13 02:21:15;;;;;;;118.47;31.92;;;2.50;99.90;;;;;;5053716;28;20663;-71
2021/11/13 02:23:44;;;;;;;115.38;33.92;;;2.50;99.90;;;;;;5054089;28;20201;-72
2021/11/13 02:26:11;;;;;;;130.80;33.70;;;2.60;99.90;;;;;;5053385;28;20229;-71
2021/11/13 02:28:38;;;;;;;108.18;32.60;;;2.60;99.90;;;;;;5053900;28;20292;-72
2021/11/13 02:31:08;;;;;;;105.15;31.02;;;2.60;99.90;;;;;;5053776;28;20226;-72
2021/11/13 02:33:35;;;;;;;114.90;33.00;;;2.60;99.90;;;;;;5053697;28;20300;-71
2021/11/13 02:36:06;;;;;;;137.05;31.67;;;2.60;99.90;;;;;;5053267;28;20205;-71
2021/11/13 02:38:36;;;;;;;117.40;33.30;;;2.50;99.90;;;;;;5053818;28;20589;-72
2021/11/13 02:41:06;;;;;;;108.75;31.67;;;2.40;99.90;;;;;;5053706;28;20229;-71
2021/11/13 02:43:35;;;;;;;123.40;31.45;;;2.40;99.90;;;;;;5053763;28;20733;-72
2021/11/13 02:46:06;;;;;;;102.90;30.27;;;2.40;99.90;;;;;;5053000;28;20243;-72
2021/11/13 02:48:35;;;;;;;117.22;29.88;;;2.40;99.90;;;;;;5052098;28;20209;-72
2021/11/13 02:51:02;;;;;;;110.38;33.10;;;2.40;99.90;;;;;;5053206;28;20312;-72
2021/11/13 02:53:30;;;;;;;112.88;30.83;;;2.30;99.90;;;;;;5053536;28;20304;-72
2021/11/13 02:56:02;;;;;;;111.07;32.20;;;2.40;99.90;;;;;;5053187;28;20628;-72
2021/11/13 02:58:29;;;;;;;99.30;27.48;;;2.50;99.90;;;;;;5053694;28;20205;-72
2021/11/13 03:00:58;;;;;;;132.27;31.52;;;2.50;99.90;;;;;;5053590;28;20581;-72
2021/11/13 03:03:26;;;;;;;113.32;28.88;;;2.50;99.90;;;;;;5053120;28;20201;-72
2021/11/13 03:05:55;;;;;;;113.13;31.77;;;2.40;99.90;;;;;;5052947;28;20229;-72
2021/11/13 03:08:25;;;;;;;108.78;28.80;;;2.20;99.90;;;;;;5053320;28;20233;-72
2021/11/13 03:10:53;;;;;;;106.72;28.70;;;2.20;99.90;;;;;;5053078;28;20264;-71
2021/11/13 03:13:22;;;;;;;104.25;29.23;;;2.20;99.90;;;;;;5053092;28;20205;-71
2021/11/13 03:15:50;;;;;;;97.97;25.10;;;2.20;99.90;;;;;;5052587;28;20233;-72
2021/11/13 03:18:17;;;;;;;115.13;32.55;;;2.10;99.90;;;;;;5053162;28;20271;-70
2021/11/13 03:20:44;;;;;;;113.85;29.77;;;2.10;99.90;;;;;;5052689;28;20257;-71
2021/11/13 03:23:12;;;;;;;119.43;34.53;;;2.20;99.90;;;;;;5052833;28;20210;-71
2021/11/13 03:25:40;;;;;;;122.55;32.95;;;2.20;99.90;;;;;;5052353;28;20433;-71
2021/11/13 03:28:12;;;;;;;110.85;31.10;;;2.30;99.90;;;;;;5052753;28;20205;-71
2021/11/13 03:30:41;;;;;;;115.78;31.67;;;2.40;99.90;;;;;;5052500;28;20276;-71
2021/11/13 03:33:08;;;;;;;116.72;32.40;;;2.30;99.90;;;;;;5052662;28;20738;-71
2021/11/13 03:35:35;;;;;;;108.18;32.50;;;2.30;99.90;;;;;;5052318;28;20237;-71
2021/11/13 03:38:05;;;;;;;126.07;31.15;;;2.30;99.90;;;;;;5052605;28;20208;-71
2021/11/13 03:40:33;;;;;;;114.85;29.10;;;2.20;99.90;;;;;;5052390;28;20252;-71
2021/11/13 03:43:00;;;;;;;109.15;29.63;;;2.10;99.90;;;;;;5052234;28;20745;-71
2021/11/13 03:45:27;;;;;;;89.35;22.00;;;1.90;99.90;;;;;;5051947;28;20225;-70
2021/11/13 03:47:56;;;;;;;112.70;28.33;;;1.90;99.90;;;;;;5052524;28;20320;-70
2021/11/13 03:50:23;;;;;;;105.85;30.52;;;1.80;99.90;;;;;;5052332;28;20252;-70
2021/11/13 03:52:51;;;;;;;124.63;30.10;;;1.90;99.90;;;;;;5052214;28;20236;-70
2021/11/13 03:55:18;;;;;;;98.43;26.33;;;1.90;99.90;;;;;;5052151;28;20808;-70
2021/11/13 03:57:45;;;;;;;109.35;31.48;;;1.90;99.90;;;;;;5051840;28;20293;-70
2021/11/13 04:00:13;;;;;;;114.45;32.40;;;2.00;99.90;;;;;;5052193;28;20232;-70
2021/11/13 04:02:44;;;;;;;109.60;30.77;;;2.10;99.90;;;;;;5052270;28;20260;-70
2021/11/13 04:05:13;;;;;;;106.63;29.13;;;2.00;99.90;;;;;;5051763;28;20236;-70
2021/11/13 04:07:40;;;;;;;109.47;28.70;;;2.00;99.90;;;;;;5051801;28;20209;-68
2021/11/13 04:10:09;;;;;;;106.47;30.70;;;1.80;99.90;;;;;;5051712;28;20206;-68
2021/11/13 04:12:37;;;;;;;100.97;28.00;;;1.80;99.90;;;;;;5051666;28;20209;-68
2021/11/13 04:15:05;;;;;;;90.75;22.15;;;1.80;99.90;;;;;;5051792;28;20209;-71
2021/11/13 04:17:33;;;;;;;97.82;24.88;;;1.60;99.90;;;;;;5051619;28;20267;-71
2021/11/13 04:20:00;;;;;;;105.90;31.02;;;1.60;99.90;;;;;;5051722;28;20213;-69
2021/11/13 04:22:29;;;;;;;102.85;29.33;;;1.70;99.90;;;;;;5051709;28;20236;-70
2021/11/13 04:24:55;;;;;;;106.45;31.70;;;1.70;99.90;;;;;;5051466;28;20251;-69
2021/11/13 04:27:22;;;;;;;97.60;28.92;;;1.80;99.90;;;;;;5051725;28;20205;-69
2021/11/13 04:29:49;;;;;;;108.50;30.15;;;1.70;99.90;;;;;;5051856;28;20644;-69
2021/11/13 04:32:16;;;;;;;107.60;30.88;;;1.90;99.90;;;;;;5051540;28;20762;-71
2021/11/13 04:34:48;;;;;;;90.40;21.73;;;1.90;99.90;;;;;;5051539;28;20682;-69
2021/11/13 04:37:16;;;;;;;95.32;27.17;;;1.70;99.90;;;;;;5051166;28;20740;-69
2021/11/13 04:39:46;;;;;;;88.00;22.50;;;1.70;99.90;;;;;;5051781;28;20210;-69
2021/11/13 04:42:14;;;;;;;96.10;26.85;;;1.60;99.90;;;;;;5051520;28;20697;-69
2021/11/13 04:44:41;;;;;;;93.22;27.42;;;1.70;99.90;;;;;;5051570;28;20221;-69
2021/11/13 04:47:08;;;;;;;100.00;30.92;;;1.80;99.90;;;;;;5051475;28;20325;-69
2021/11/13 04:49:36;;;;;;;97.03;27.65;;;1.80;99.90;;;;;;5051439;28;20300;-69
2021/11/13 04:52:04;;;;;;;96.80;26.83;;;1.80;99.90;;;;;;5051313;28;20235;-69
2021/11/13 04:54:32;;;;;;;99.03;28.60;;;1.80;99.90;;;;;;5051616;28;20201;-69
2021/11/13 04:57:00;;;;;;;94.18;25.25;;;1.90;99.90;;;;;;5051256;28;20236;-69
2021/11/13 04:59:27;;;;;;;94.40;25.58;;;1.90;99.90;;;;;;5051475;28;20205;-69
2021/11/13 05:01:54;;;;;;;93.55;25.20;;;1.90;99.90;;;;;;5051312;28;20689;-69
2021/11/13 05:04:21;;;;;;;92.10;26.13;;;1.90;99.90;;;;;;5051296;28;20206;-69
2021/11/13 05:06:48;;;;;;;104.60;26.77;;;2.00;99.90;;;;;;5051085;28;20321;-69
2021/11/13 05:09:15;;;;;;;102.88;28.13;;;2.00;99.90;;;;;;5051424;28;20296;-69
2021/11/13 05:11:42;;;;;;;101.25;28.90;;;2.00;99.90;;;;;;5051289;28;20236;-69
2021/11/13 05:14:10;;;;;;;96.97;26.20;;;2.10;99.90;;;;;;5051317;28;20296;-69
2021/11/13 05:16:37;;;;;;;97.68;27.30;;;2.10;99.90;;;;;;5050830;28;20288;-69
2021/11/13 05:19:04;;;;;;;93.75;27.25;;;2.20;99.90;;;;;;5051046;28;20640;-69
2021/11/13 05:21:31;;;;;;;94.88;27.58;;;2.10;99.90;;;;;;5051090;28;20789;-69
2021/11/13 05:23:58;;;;;;;91.70;26.40;;;2.10;99.90;;;;;;5051288;28;20237;-70
2021/11/13 05:26:25;;;;;;;96.22;26.42;;;2.10;99.90;;;;;;5054691;28;20232;-71
2021/11/13 05:28:51;;;;;;;94.22;26.05;;;2.20;99.90;;;;;;5054942;28;20608;-71
2021/11/13 05:31:20;;;;;;;98.97;28.10;;;2.20;99.90;;;;;;5054864;28;20253;-71
2021/11/13 05:33:47;;;;;;;92.70;24.60;;;2.20;99.90;;;;;;5054978;28;20297;-71
2021/11/13 05:36:13;;;;;;;93.78;25.83;;;2.20;99.90;;;;;;5054434;28;20662;-71
2021/11/13 05:38:40;;;;;;;97.07;25.50;;;2.20;99.90;;;;;;5054890;28;20763;-72
2021/11/13 05:41:07;;;;;;;93.80;26.35;;;2.20;99.90;;;;;;5054636;28;20261;-71
2021/11/13 05:43:34;;;;;;;97.32;28.40;;;2.20;99.90;;;;;;5054800;28;20237;-71
2021/11/13 05:46:01;;;;;;;101.25;28.55;;;2.20;99.90;;;;;;5054052;28;20225;-71
2021/11/13 05:48:29;;;;;;;93.43;24.55;;;2.30;99.90;;;;;;5054817;28;20216;-71
2021/11/13 05:50:56;;;;;;;93.57;25.63;;;2.20;99.90;;;;;;5054447;28;20261;-71
2021/11/13 05:53:23;;;;;;;96.25;26.92;;;2.20;99.90;;;;;;5054714;28;20248;-71
2021/11/13 05:55:51;;;;;;;96.75;28.60;;;2.20;99.90;;;;;;5054170;28;20205;-71
2021/11/13 05:58:18;;;;;;;103.65;27.88;;;2.30;99.90;;;;;;5054450;28;20240;-71
2021/11/13 06:00:45;;;;;;;99.35;27.60;;;2.30;99.90;;;;;;5054475;28;20233;-71
2021/11/13 06:03:12;;;;;;;101.93;27.83;;;2.30;99.90;;;;;;5054300;28;20296;-71
2021/11/13 06:05:42;;;;;;;94.10;26.33;;;2.30;99.90;;;;;;5053900;28;20241;-72
2021/11/13 06:08:09;;;;;;;92.35;25.27;;;2.30;99.90;;;;;;5054384;28;20206;-71
2021/11/13 06:10:37;;;;;;;96.57;26.58;;;2.30;99.90;;;;;;5054169;28;20218;-71
2021/11/13 06:13:04;;;;;;;99.93;28.73;;;2.30;99.90;;;;;;5054149;28;20244;-71
2021/11/13 06:15:31;;;;;;;94.95;26.88;;;2.40;99.90;;;;;;5053599;28;20244;-71
2021/11/13 06:17:58;;;;;;;99.93;26.00;;;2.40;99.90;;;;;;5054240;28;20261;-71
2021/11/13 06:20:26;;;;;;;94.63;24.60;;;2.40;99.90;;;;;;5054066;28;20222;-71
2021/11/13 06:22:54;;;;;;;98.00;26.45;;;2.40;99.90;;;;;;5054039;28;20240;-71
2021/11/13 06:25:21;;;;;;;92.03;24.15;;;2.40;99.90;;;;;;5053771;28;20643;-71
2021/11/13 06:27:49;;;;;;;96.22;25.77;;;2.50;99.90;;;;;;5053692;28;20225;-71
2021/11/13 06:30:17;;;;;;;94.60;25.60;;;2.50;99.90;;;;;;5053747;28;20237;-71
2021/11/13 06:32:46;;;;;;;88.53;24.08;;;2.50;99.90;;;;;;5054008;28;20206;-71
2021/11/13 06:35:14;;;;;;;88.00;24.25;;;2.50;99.90;;;;;;5053311;28;20293;-71
2021/11/13 06:37:42;;;;;;;90.72;23.98;;;2.50;99.90;;;;;;5053497;28;20742;-71
2021/11/13 06:40:12;;;;;;;92.38;24.25;;;2.50;99.90;;;;;;5053507;28;20296;-71
2021/11/13 06:42:39;;;;;;;90.75;26.33;;;2.50;99.90;;;;;;5053604;28;20300;-72
2021/11/13 06:45:07;;;;;;;93.47;26.25;;;2.50;99.90;;;;;;5053572;28;20296;-72
2021/11/13 06:47:34;;;;;;;94.90;26.95;;;2.60;99.90;;;;;;5053331;28;20312;-72
2021/11/13 06:50:01;;;;;;;86.32;22.60;;;2.60;99.90;;;;;;5053442;28;20689;-71
2021/11/13 06:52:28;;;;;;;91.72;24.92;;;2.60;99.90;;;;;;5053486;28;20277;-71
2021/11/13 06:54:54;;;;;;;91.75;23.77;;;2.60;99.90;;;;;;5053538;28;20213;-71
2021/11/13 06:57:23;;;;;;;86.03;22.85;;;2.70;99.90;;;;;;5053204;28;20208;-71
2021/11/13 06:59:50;;;;;;;88.32;23.73;;;2.70;99.90;;;;;;5053333;28;20216;-71
2021/11/13 07:02:17;;;;;;;97.97;23.55;;;2.80;99.90;;;;;;5053318;28;20226;-71
2021/11/13 07:04:44;;;;;;;89.95;25.33;;;2.80;99.90;;;;;;5053107;28;20694;-71
2021/11/13 07:07:11;;;;;;;91.47;25.20;;;2.80;99.90;;;;;;5052703;28;20764;-71
2021/11/13 07:09:38;;;;;;;87.55;23.85;;;2.90;99.90;;;;;;5053105;28;20292;-71
2021/11/13 07:12:05;;;;;;;90.75;24.15;;;2.90;99.90;;;;;;5053150;28;20257;-71
2021/11/13 07:14:34;;;;;;;93.03;23.60;;;3.00;99.90;;;;;;5052918;28;20692;-70
2021/11/13 07:17:01;;;;;;;91.13;24.67;;;3.00;99.90;;;;;;5052682;28;20237;-71
2021/11/13 07:19:27;;;;;;;88.72;22.95;;;3.00;99.90;;;;;;5053005;28;20248;-71
2021/11/13 07:21:54;;;;;;;86.65;23.25;;;3.00;99.90;;;;;;5052690;28;20312;-69
2021/11/13 07:24:21;;;;;;;90.85;22.45;;;3.10;99.90;;;;;;5052810;28;20209;-71
2021/11/13 07:26:52;;;;;;;89.22;20.30;;;3.10;99.90;;;;;;5052513;28;20279;-71
2021/11/13 07:29:19;;;;;;;90.88;23.55;;;3.20;99.90;;;;;;5052679;28;20202;-72
2021/11/13 07:31:48;;;;;;;92.78;25.00;;;3.30;99.90;;;;;;5052654;28;20287;-72
2021/11/13 07:34:15;;;;;;;84.82;21.27;;;3.30;99.90;;;;;;5052620;28;20233;-71
2021/11/13 07:36:41;;;;;;;84.25;20.95;;;3.30;99.90;;;;;;5052259;28;20208;-72
2021/11/13 07:39:08;;;;;;;92.53;23.65;;;3.30;99.90;;;;;;5052595;28;20212;-70
2021/11/13 07:41:35;;;;;;;83.30;21.77;;;3.40;99.90;;;;;;5052616;28;20272;-69
2021/11/13 07:44:02;;;;;;;84.72;21.92;;;3.50;99.90;;;;;;5052424;28;20300;-72
2021/11/13 07:46:29;;;;;;;83.95;21.15;;;3.50;99.90;;;;;;5049721;28;20316;-69
2021/11/13 07:48:57;;;;;;;83.57;22.65;;;3.50;99.90;;;;;;5050416;28;20208;-70
2021/11/13 07:51:24;;;;;;;85.93;21.20;;;3.50;99.90;;;;;;5051306;28;20336;-69
2021/11/13 07:53:51;;;;;;;86.45;22.20;;;3.60;99.90;;;;;;5053773;28;20595;-70
2021/11/13 07:56:18;;;;;;;87.25;22.80;;;3.60;99.90;;;;;;5071061;28;20684;-70
2021/11/13 07:58:45;;;;;;;90.15;21.92;;;3.60;99.90;;;;;;5071642;28;20295;-70
2021/11/13 08:01:12;;;;;;;83.55;21.92;;;3.70;99.90;;;;;;5071355;28;20278;-68
2021/11/13 08:03:39;;;;;;;83.78;23.00;;;3.80;99.90;;;;;;5071255;28;20292;-68
2021/11/13 08:06:07;;;;;;;82.88;21.00;;;3.90;99.90;;;;;;5071368;28;20292;-69
2021/11/13 08:08:34;;;;;;;83.75;22.20;;;4.00;99.90;;;;;;5071572;28;20209;-68
2021/11/13 08:11:01;;;;;;;82.00;21.05;;;4.10;99.90;;;;;;5071409;28;20319;-68
2021/11/13 08:13:28;;;;;;;83.10;20.00;;;4.30;99.90;;;;;;5071395;28;20250;-68
2021/11/13 08:15:55;;;;;;;87.75;23.52;;;4.50;99.90;;;;;;5071404;28;20292;-68
2021/11/13 08:18:22;;;;;;;81.80;22.02;;;4.50;99.90;;;;;;5071288;28;20287;-71
2021/11/13 08:20:49;;;;;;;82.05;20.80;;;4.60;99.90;;;;;;5071492;28;20656;-69
2021/11/13 08:23:18;;;;;;;85.07;21.08;;;4.90;99.90;;;;;;5071476;28;20219;-68
2021/11/13 08:25:46;;;;;;;90.35;23.38;;;5.00;99.90;;;;;;5071181;28;20296;-68
2021/11/13 08:28:14;;;;;;;83.28;20.25;;;5.20;99.90;;;;;;5069381;28;20255;-69
2021/11/13 08:30:41;;;;;;;83.93;21.65;;;5.50;99.90;;;;;;5071429;28;20315;-68
2021/11/13 08:33:09;;;;;;;82.07;20.63;;;5.70;99.90;;;;;;5071755;28;20300;-69
2021/11/13 08:35:36;;;;;;;83.82;20.17;;;5.90;99.90;;;;;;5071333;28;20305;-68
2021/11/13 08:38:03;;;;;;;79.00;19.17;;;6.10;99.90;;;;;;5071311;28;20207;-68
2021/11/13 08:40:31;;;;;;;82.15;20.38;;;6.30;99.90;;;;;;5071537;28;20278;-69
2021/11/13 08:42:58;;;;;;;82.05;20.02;;;6.60;99.90;;;;;;5052177;28;20220;-69
2021/11/13 08:45:25;;;;;;;80.18;21.33;;;6.90;99.90;;;;;;5050935;28;20768;-69
2021/11/13 08:47:52;;;;;;;78.43;18.67;;;7.10;99.90;;;;;;5050947;28;20238;-68
2021/11/13 08:50:23;;;;;;;78.95;18.35;;;7.20;99.90;;;;;;5051633;28;20297;-69
2021/11/13 08:52:53;;;;;;;77.00;18.70;;;7.10;99.80;;;;;;5051615;28;20288;-68
2021/11/13 08:55:22;;;;;;;76.28;17.48;;;7.00;99.90;;;;;;5051567;28;20308;-69
2021/11/13 08:57:51;;;;;;;74.55;16.67;;;6.80;99.80;;;;;;5051268;28;20446;-70
2021/11/13 09:00:22;;;;;;;91.28;15.73;;;6.70;99.50;;;;;;5069059;28;20272;-69
2021/11/13 09:02:50;;;;;;;72.05;14.48;;;6.60;98.80;;;;;;5075247;28;20258;-69
2021/11/13 09:05:17;;;;;;;74.05;15.13;;;6.60;97.90;;;;;;5073912;28;20659;-69
2021/11/13 09:07:44;;;;;;;73.95;17.08;;;6.40;98.60;;;;;;5074558;28;20227;-70
2021/11/13 09:10:12;;;;;;;78.60;18.88;;;6.30;99.90;;;;;;5075024;28;20211;-69
2021/11/13 09:12:39;;;;;;;75.80;18.85;;;6.30;99.90;;;;;;5075561;28;20230;-69
2021/11/13 09:15:13;;;;;;;73.80;14.98;;;6.20;99.90;;;;;;5075338;28;20579;-70
2021/11/13 09:17:40;;;;;;;75.38;14.75;;;6.20;99.90;;;;;;5075013;28;20241;-69
2021/11/13 09:20:08;;;;;;;72.70;14.20;;;6.20;99.90;;;;;;5074899;28;20251;-69
2021/11/13 09:22:36;;;;;;;72.43;14.00;;;6.20;99.90;;;;;;5074844;28;20245;-69
2021/11/13 09:25:08;;;;;;;78.68;17.35;;;6.40;99.90;;;;;;5074855;28;20212;-69
2021/11/13 09:27:35;;;;;;;76.25;15.75;;;6.70;99.90;;;;;;5074535;28;20646;-69
2021/11/13 09:30:03;;;;;;;81.15;21.58;;;7.00;99.90;;;;;;5073666;28;20249;-68
2021/11/13 09:32:31;;;;;;;93.68;28.90;;;7.30;99.90;;;;;;5034414;28;20450;-69
2021/11/13 09:34:58;;;;;;;92.15;31.52;;;7.40;99.90;;;;;;5034438;28;21320;-69
2021/11/13 09:37:25;;;;;;;94.57;31.90;;;7.40;99.90;;;;;;5034431;28;20204;-69
2021/11/13 09:39:52;;;;;;;94.45;32.38;;;7.40;99.90;;;;;;5034665;28;20215;-69
2021/11/13 09:42:20;;;;;;;90.18;28.85;;;7.60;99.90;;;;;;5034538;28;20350;-70
2021/11/13 09:44:47;;;;;;;88.95;27.80;;;7.80;99.90;;;;;;5034183;28;20679;-69
2021/11/13 09:47:14;;;;;;;91.05;28.45;;;7.70;99.90;;;;;;5034062;28;20712;-70
2021/11/13 09:49:43;;;;;;;84.97;26.17;;;8.00;99.90;;;;;;5034253;28;20210;-69
2021/11/13 09:52:12;;;;;;;85.03;25.73;;;8.30;99.90;;;;;;5034812;28;20283;-70
2021/11/13 09:54:39;;;;;;;83.83;23.83;;;8.40;96.20;;;;;;5034730;28;20214;-69
2021/11/13 09:57:08;;;;;;;79.27;21.73;;;8.50;94.60;;;;;;5033784;28;20447;-70
2021/11/13 09:59:34;;;;;;;78.60;19.10;;;8.70;92.80;;;;;;5034156;28;20453;-69
2021/11/13 10:02:01;;;;;;;77.27;19.67;;;9.00;90.40;;;;;;5038864;28;20525;-69
2021/11/13 10:04:28;;;;;;;74.80;16.97;;;9.00;81.80;;;;;;5053656;28;20490;-69
2021/11/13 10:06:57;;;;;;;72.60;16.17;;;9.00;82.60;;;;;;5053419;28;20891;-69
2021/11/13 10:09:24;;;;;;;73.07;15.10;;;9.40;80.30;;;;;;5053767;28;20449;-69
2021/11/13 10:11:53;;;;;;;74.40;15.73;;;9.60;79.20;;;;;;5053144;28;20474;-69
2021/11/13 10:14:34;;;;;;;73.13;14.73;;;9.30;79.10;;;;;;5054284;28;20486;-69
2021/11/13 10:17:01;;;;;;;72.97;16.00;;;9.00;81.30;;;;;;5053359;28;20470;-69
2021/11/13 10:19:29;;;;;;;72.67;15.93;;;8.70;83.00;;;;;;5054067;28;20450;-69
2021/11/13 10:21:58;;;;;;;75.40;16.57;;;8.50;87.10;;;;;;5053872;28;20500;-69
2021/11/13 10:24:28;;;;;;;76.93;16.53;;;8.20;92.00;;;;;;5053347;28;20929;-69
2021/11/13 10:26:58;;;;;;;76.70;16.63;;;8.10;92.80;;;;;;5053196;28;20533;-69
2021/11/13 10:29:26;;;;;;;73.60;16.38;;;8.10;96.20;;;;;;5053139;28;20453;-69
2021/11/13 10:31:55;;;;;;;78.30;17.57;;;8.00;99.90;;;;;;5053972;28;20227;-67
2021/11/13 10:34:24;;;;;;;73.85;15.43;;;7.80;99.90;;;;;;5071517;28;20526;-67
2021/11/13 10:36:53;;;;;;;80.88;19.15;;;7.70;99.90;;;;;;5073715;28;20293;-67
2021/11/13 10:39:24;;;;;;;73.43;15.93;;;7.70;99.90;;;;;;5073647;28;20305;-67
2021/11/13 10:41:53;;;;;;;76.53;17.75;;;7.70;99.90;;;;;;5073266;28;20235;-68
2021/11/13 10:44:28;;;;;;;76.18;17.15;;;7.70;99.90;;;;;;5073752;28;20247;-67
2021/11/13 10:46:56;;;;;;;78.50;18.40;;;7.80;99.90;;;;;;5073029;28;20206;-67
2021/11/13 10:49:24;;;;;;;79.00;19.77;;;7.80;99.90;;;;;;5063671;28;20588;-67
2021/11/13 10:51:54;;;;;;;78.10;17.88;;;7.90;99.90;;;;;;5052818;28;20232;-68
2021/11/13 10:54:23;;;;;;;74.75;17.23;;;8.00;99.90;;;;;;5053315;28;20245;-68
2021/11/13 10:56:52;;;;;;;77.40;17.73;;;8.00;99.90;;;;;;5057055;28;20210;-68
2021/11/13 10:59:24;;;;;;;80.00;17.80;;;8.10;99.90;;;;;;5073312;28;20524;-67
2021/11/13 11:01:53;;;;;;;75.78;17.88;;;8.00;99.90;;;;;;5073372;28;20463;-67
2021/11/13 11:04:22;;;;;;;76.22;18.50;;;8.00;99.90;;;;;;5072807;28;20252;-67
2021/11/13 11:06:51;;;;;;;80.28;20.58;;;8.00;99.90;;;;;;5072701;28;20232;-67
2021/11/13 11:09:27;;;;;;;104.25;20.85;;;8.00;99.90;;;;;;5073044;28;20316;-67
2021/11/13 11:11:57;;;;;;;86.00;26.00;;;8.70;99.90;;;;;;5072636;28;20240;-67
2021/11/13 11:14:26;;;;;;;73.77;17.97;;;11.00;99.90;;;;;;5073085;28;20446;-66
2021/11/13 11:16:54;;;;;;;75.60;16.97;;;11.20;99.90;;;;;;5072665;28;20537;-65
2021/11/13 11:19:25;;;;;;;71.40;15.40;;;10.80;99.90;;;;;;5072568;28;20482;-65
2021/11/13 11:22:08;;;;;;;77.43;15.10;;;10.40;99.90;;;;;;5054447;28;20521;-67
2021/11/13 11:24:40;;;;;;;69.00;14.40;;;10.00;99.90;;;;;;5052688;28;20889;-65
2021/11/13 11:27:19;;;;;;;74.30;14.57;;;9.70;99.90;;;;;;5052503;28;20479;-67
2021/11/13 11:29:53;;;;;;;72.30;13.03;;;9.50;99.90;;;;;;5052406;28;20539;-66
2021/11/13 11:32:23;;;;;;;70.13;12.83;;;9.50;99.90;;;;;;5052560;28;20474;-66
2021/11/13 11:34:52;;;;;;;71.33;14.70;;;9.40;99.90;;;;;;5052871;28;20879;-66
2021/11/13 11:37:22;;;;;;;70.73;13.83;;;9.40;99.90;;;;;;5052395;28;20455;-66
2021/11/13 11:39:54;;;;;;;72.97;14.13;;;9.20;99.90;;;;;;5052512;28;20451;-65
2021/11/13 11:42:21;;;;;;;73.83;13.60;;;9.20;99.90;;;;;;5052092;28;20486;-66
2021/11/13 11:44:50;;;;;;;71.43;14.60;;;9.00;99.90;;;;;;5052355;28;20454;-66
2021/11/13 11:47:18;;;;;;;74.60;15.87;;;8.90;99.90;;;;;;5052157;28;20448;-66
2021/11/13 11:49:47;;;;;;;70.23;13.83;;;8.90;99.90;;;;;;5052281;28;20468;-66
2021/11/13 11:52:16;;;;;;;75.37;15.20;;;8.90;99.90;;;;;;5051991;28;20994;-66
2021/11/13 11:54:45;;;;;;;77.20;15.67;;;8.90;99.90;;;;;;5064443;28;20453;-66
2021/11/13 11:57:14;;;;;;;72.00;14.17;;;8.90;99.90;;;;;;5072098;28;20460;-66
2021/11/13 11:59:42;;;;;;;71.33;14.63;;;8.70;99.90;;;;;;5072141;28;20455;-66
2021/11/13 12:02:12;;;;;;;70.40;13.67;;;8.60;99.90;;;;;;5071894;28;20497;-66
2021/11/13 12:04:40;;;;;;;73.97;14.27;;;8.50;99.90;;;;;;5071644;28;20498;-66
2021/11/13 12:07:09;;;;;;;71.87;13.00;;;8.40;99.90;;;;;;5071775;28;20456;-66
2021/11/13 12:09:58;;;;;;;72.90;14.07;;;8.40;99.90;;;;;;5071679;28;20489;-66
2021/11/13 12:12:27;;;;;;;69.77;13.87;;;8.30;99.90;;;;;;5071968;28;20465;-66
2021/11/13 12:14:55;;;;;;;69.87;13.60;;;8.30;99.90;;;;;;5071487;28;20445;-67
2021/11/13 12:17:34;;;;;;;69.00;12.30;;;8.30;99.90;;;;;;5071611;28;20840;-66
2021/11/13 12:20:37;;;;;;;72.10;15.27;;;8.30;99.90;;;;;;5071679;28;20488;-66
2021/11/13 12:23:15;;;;;;;69.43;13.60;;;8.40;99.90;;;;;;5071801;28;20480;-67
2021/11/13 12:25:56;;;;;;;75.23;14.40;;;8.40;99.90;;;;;;5071238;28;20452;-66
2021/11/13 12:28:26;;;;;;;73.00;14.50;;;8.40;99.90;;;;;;5031662;28;20483;-66
2021/11/13 12:31:09;;;;;;;71.77;13.30;;;8.50;99.90;;;;;;5031238;28;21002;-66
2021/11/13 12:33:45;;;;;;;72.33;13.80;;;8.50;99.90;;;;;;5031283;28;20838;-66
2021/11/13 12:36:17;;;;;;;73.67;14.90;;;8.50;99.90;;;;;;5030955;28;20461;-66
2021/11/13 12:38:48;;;;;;;74.30;15.50;;;8.50;99.90;;;;;;5030878;28;20969;-66